sensor_id;sensor_type;location;lat;lon;timestamp;P1;durP1;ratioP1;P2;durP2;ratioP2
42478;SDS011;28110;47.080;9.476;2023-06-24T00:01:26;6.22;;;4.00;;
42478;SDS011;28110;47.080;9.476;2023-06-24T00:03:51;5.13;;;3.87;;
42478;SDS011;28110;47.080;9.476;2023-06-24T00:06:21;7.05;;;4.10;;
42478;SDS011;28110;47.080;9.476;2023-06-24T00:08:47;5.95;;;3.83;;
42478;SDS011;28110;47.080;9.476;2023-06-24T00:11:13;6.47;;;4.38;;
42478;SDS011;28110;47.080;9.476;2023-06-24T00:13:40;6.20;;;4.47;;
42478;SDS011;28110;47.080;9.476;2023-06-24T00:16:06;4.97;;;3.95;;
42478;SDS011;28110;47.080;9.476;2023-06-24T00:18:32;8.70;;;4.10;;
42478;SDS011;28110;47.080;9.476;2023-06-24T00:20:58;7.03;;;4.45;;
42478;SDS011;28110;47.080;9.476;2023-06-24T00:23:26;8.10;;;4.28;;
42478;SDS011;28110;47.080;9.476;2023-06-24T00:25:53;6.63;;;4.10;;
42478;SDS011;28110;47.080;9.476;2023-06-24T00:28:20;5.85;;;4.03;;
42478;SDS011;28110;47.080;9.476;2023-06-24T00:30:48;4.97;;;3.40;;
42478;SDS011;28110;47.080;9.476;2023-06-24T00:33:14;6.68;;;4.13;;
42478;SDS011;28110;47.080;9.476;2023-06-24T00:35:41;4.97;;;4.00;;
42478;SDS011;28110;47.080;9.476;2023-06-24T00:38:07;4.85;;;3.60;;
42478;SDS011;28110;47.080;9.476;2023-06-24T00:40:33;6.67;;;4.40;;
42478;SDS011;28110;47.080;9.476;2023-06-24T00:43:00;6.20;;;4.63;;
42478;SDS011;28110;47.080;9.476;2023-06-24T00:45:27;7.97;;;4.80;;
42478;SDS011;28110;47.080;9.476;2023-06-24T00:47:55;8.93;;;4.65;;
42478;SDS011;28110;47.080;9.476;2023-06-24T00:50:21;8.10;;;4.63;;
42478;SDS011;28110;47.080;9.476;2023-06-24T00:52:46;7.77;;;4.50;;
42478;SDS011;28110;47.080;9.476;2023-06-24T00:55:14;5.82;;;4.07;;
42478;SDS011;28110;47.080;9.476;2023-06-24T00:57:44;6.07;;;4.38;;
42478;SDS011;28110;47.080;9.476;2023-06-24T01:00:15;7.07;;;4.30;;
42478;SDS011;28110;47.080;9.476;2023-06-24T01:02:43;6.53;;;4.57;;
42478;SDS011;28110;47.080;9.476;2023-06-24T01:05:09;7.95;;;4.18;;
42478;SDS011;28110;47.080;9.476;2023-06-24T01:07:37;7.53;;;4.18;;
42478;SDS011;28110;47.080;9.476;2023-06-24T01:10:03;8.20;;;4.45;;
42478;SDS011;28110;47.080;9.476;2023-06-24T01:12:33;9.57;;;4.50;;
42478;SDS011;28110;47.080;9.476;2023-06-24T01:15:09;5.17;;;3.90;;
42478;SDS011;28110;47.080;9.476;2023-06-24T01:20:38;6.47;;;4.65;;
42478;SDS011;28110;47.080;9.476;2023-06-24T01:28:15;5.87;;;3.83;;
42478;SDS011;28110;47.080;9.476;2023-06-24T01:31:28;4.75;;;3.78;;
42478;SDS011;28110;47.080;9.476;2023-06-24T01:37:10;5.32;;;4.07;;
42478;SDS011;28110;47.080;9.476;2023-06-24T01:39:45;6.78;;;4.28;;
42478;SDS011;28110;47.080;9.476;2023-06-24T01:42:17;8.30;;;4.30;;
42478;SDS011;28110;47.080;9.476;2023-06-24T01:44:47;6.68;;;4.20;;
42478;SDS011;28110;47.080;9.476;2023-06-24T01:47:14;6.47;;;4.45;;
42478;SDS011;28110;47.080;9.476;2023-06-24T01:49:48;6.38;;;4.10;;
42478;SDS011;28110;47.080;9.476;2023-06-24T01:52:17;7.05;;;4.38;;
42478;SDS011;28110;47.080;9.476;2023-06-24T01:54:45;9.57;;;4.27;;
42478;SDS011;28110;47.080;9.476;2023-06-24T01:57:14;7.00;;;4.43;;
42478;SDS011;28110;47.080;9.476;2023-06-24T01:59:42;7.68;;;4.57;;
42478;SDS011;28110;47.080;9.476;2023-06-24T02:02:10;8.50;;;4.65;;
42478;SDS011;28110;47.080;9.476;2023-06-24T02:04:37;5.53;;;4.57;;
42478;SDS011;28110;47.080;9.476;2023-06-24T02:07:03;7.00;;;4.77;;
42478;SDS011;28110;47.080;9.476;2023-06-24T02:09:31;10.63;;;5.05;;
42478;SDS011;28110;47.080;9.476;2023-06-24T02:11:58;7.75;;;4.65;;
42478;SDS011;28110;47.080;9.476;2023-06-24T02:14:27;7.95;;;5.00;;
42478;SDS011;28110;47.080;9.476;2023-06-24T02:16:54;8.80;;;4.93;;
42478;SDS011;28110;47.080;9.476;2023-06-24T02:19:23;6.85;;;5.00;;
42478;SDS011;28110;47.080;9.476;2023-06-24T02:21:51;7.43;;;4.57;;
42478;SDS011;28110;47.080;9.476;2023-06-24T02:24:19;7.82;;;4.22;;
42478;SDS011;28110;47.080;9.476;2023-06-24T02:26:45;5.47;;;4.57;;
42478;SDS011;28110;47.080;9.476;2023-06-24T02:29:12;6.07;;;4.70;;
42478;SDS011;28110;47.080;9.476;2023-06-24T02:31:38;6.18;;;4.28;;
42478;SDS011;28110;47.080;9.476;2023-06-24T02:34:05;7.80;;;4.72;;
42478;SDS011;28110;47.080;9.476;2023-06-24T02:36:30;8.77;;;4.32;;
42478;SDS011;28110;47.080;9.476;2023-06-24T02:38:56;7.27;;;4.50;;
42478;SDS011;28110;47.080;9.476;2023-06-24T02:41:22;7.40;;;4.57;;
42478;SDS011;28110;47.080;9.476;2023-06-24T02:43:47;5.70;;;4.27;;
42478;SDS011;28110;47.080;9.476;2023-06-24T02:46:13;7.63;;;5.00;;
42478;SDS011;28110;47.080;9.476;2023-06-24T02:48:40;7.63;;;5.28;;
42478;SDS011;28110;47.080;9.476;2023-06-24T02:51:07;6.72;;;4.80;;
42478;SDS011;28110;47.080;9.476;2023-06-24T02:53:35;8.40;;;4.57;;
42478;SDS011;28110;47.080;9.476;2023-06-24T02:56:02;6.30;;;4.90;;
42478;SDS011;28110;47.080;9.476;2023-06-24T02:58:29;9.93;;;4.38;;
42478;SDS011;28110;47.080;9.476;2023-06-24T03:00:57;7.75;;;5.60;;
42478;SDS011;28110;47.080;9.476;2023-06-24T03:03:24;8.13;;;5.43;;
42478;SDS011;28110;47.080;9.476;2023-06-24T03:05:51;5.93;;;4.40;;
42478;SDS011;28110;47.080;9.476;2023-06-24T03:08:19;8.57;;;4.73;;
42478;SDS011;28110;47.080;9.476;2023-06-24T03:10:45;8.00;;;4.90;;
42478;SDS011;28110;47.080;9.476;2023-06-24T03:13:10;9.63;;;4.95;;
42478;SDS011;28110;47.080;9.476;2023-06-24T03:15:36;5.93;;;4.20;;
42478;SDS011;28110;47.080;9.476;2023-06-24T03:18:01;6.57;;;4.57;;
42478;SDS011;28110;47.080;9.476;2023-06-24T03:20:27;13.00;;;5.15;;
42478;SDS011;28110;47.080;9.476;2023-06-24T03:22:53;7.93;;;4.40;;
42478;SDS011;28110;47.080;9.476;2023-06-24T03:25:21;6.88;;;4.18;;
42478;SDS011;28110;47.080;9.476;2023-06-24T03:27:46;6.67;;;4.47;;
42478;SDS011;28110;47.080;9.476;2023-06-24T03:30:12;6.07;;;3.97;;
42478;SDS011;28110;47.080;9.476;2023-06-24T03:32:39;5.90;;;4.50;;
42478;SDS011;28110;47.080;9.476;2023-06-24T03:35:05;6.18;;;4.50;;
42478;SDS011;28110;47.080;9.476;2023-06-24T03:37:32;8.95;;;4.50;;
42478;SDS011;28110;47.080;9.476;2023-06-24T03:39:57;8.93;;;4.30;;
42478;SDS011;28110;47.080;9.476;2023-06-24T03:42:23;6.53;;;4.83;;
42478;SDS011;28110;47.080;9.476;2023-06-24T03:44:48;6.83;;;4.40;;
42478;SDS011;28110;47.080;9.476;2023-06-24T03:47:14;5.55;;;4.30;;
42478;SDS011;28110;47.080;9.476;2023-06-24T03:49:39;8.20;;;4.87;;
42478;SDS011;28110;47.080;9.476;2023-06-24T03:52:05;5.30;;;4.07;;
42478;SDS011;28110;47.080;9.476;2023-06-24T03:54:33;6.80;;;4.53;;
42478;SDS011;28110;47.080;9.476;2023-06-24T03:56:59;6.40;;;4.75;;
42478;SDS011;28110;47.080;9.476;2023-06-24T03:59:24;5.53;;;4.05;;
42478;SDS011;28110;47.080;9.476;2023-06-24T04:01:50;7.40;;;5.00;;
42478;SDS011;28110;47.080;9.476;2023-06-24T04:04:16;6.88;;;5.00;;
42478;SDS011;28110;47.080;9.476;2023-06-24T04:06:41;8.73;;;4.80;;
42478;SDS011;28110;47.080;9.476;2023-06-24T04:09:07;7.78;;;5.13;;
42478;SDS011;28110;47.080;9.476;2023-06-24T04:11:34;8.27;;;5.10;;
42478;SDS011;28110;47.080;9.476;2023-06-24T04:14:00;11.25;;;5.18;;
42478;SDS011;28110;47.080;9.476;2023-06-24T04:16:26;8.40;;;5.03;;
42478;SDS011;28110;47.080;9.476;2023-06-24T04:18:52;10.47;;;6.37;;
42478;SDS011;28110;47.080;9.476;2023-06-24T04:21:18;9.20;;;5.82;;
42478;SDS011;28110;47.080;9.476;2023-06-24T04:23:43;10.83;;;5.00;;
42478;SDS011;28110;47.080;9.476;2023-06-24T04:26:09;8.73;;;5.38;;
42478;SDS011;28110;47.080;9.476;2023-06-24T04:28:35;8.60;;;5.60;;
42478;SDS011;28110;47.080;9.476;2023-06-24T04:31:00;10.68;;;6.10;;
42478;SDS011;28110;47.080;9.476;2023-06-24T04:33:26;10.27;;;5.57;;
42478;SDS011;28110;47.080;9.476;2023-06-24T04:35:51;7.17;;;5.23;;
42478;SDS011;28110;47.080;9.476;2023-06-24T04:38:17;9.63;;;5.22;;
42478;SDS011;28110;47.080;9.476;2023-06-24T04:40:43;7.03;;;5.40;;
42478;SDS011;28110;47.080;9.476;2023-06-24T04:43:09;7.72;;;5.45;;
42478;SDS011;28110;47.080;9.476;2023-06-24T04:45:35;7.37;;;5.47;;
42478;SDS011;28110;47.080;9.476;2023-06-24T04:48:01;7.07;;;5.05;;
42478;SDS011;28110;47.080;9.476;2023-06-24T04:50:26;9.13;;;5.57;;
42478;SDS011;28110;47.080;9.476;2023-06-24T04:52:52;8.37;;;5.67;;
42478;SDS011;28110;47.080;9.476;2023-06-24T04:55:20;9.23;;;5.18;;
42478;SDS011;28110;47.080;9.476;2023-06-24T04:57:46;7.78;;;5.30;;
42478;SDS011;28110;47.080;9.476;2023-06-24T05:00:12;7.50;;;5.25;;
42478;SDS011;28110;47.080;9.476;2023-06-24T05:02:38;8.10;;;5.53;;
42478;SDS011;28110;47.080;9.476;2023-06-24T05:05:03;7.85;;;5.40;;
42478;SDS011;28110;47.080;9.476;2023-06-24T05:07:29;10.32;;;5.18;;
42478;SDS011;28110;47.080;9.476;2023-06-24T05:09:55;7.23;;;5.70;;
42478;SDS011;28110;47.080;9.476;2023-06-24T05:12:20;7.93;;;5.72;;
42478;SDS011;28110;47.080;9.476;2023-06-24T05:14:52;8.40;;;5.80;;
42478;SDS011;28110;47.080;9.476;2023-06-24T05:17:18;9.35;;;6.30;;
42478;SDS011;28110;47.080;9.476;2023-06-24T05:19:44;8.88;;;5.95;;
42478;SDS011;28110;47.080;9.476;2023-06-24T05:22:09;10.10;;;6.20;;
42478;SDS011;28110;47.080;9.476;2023-06-24T05:24:35;8.07;;;5.33;;
42478;SDS011;28110;47.080;9.476;2023-06-24T05:27:04;8.27;;;5.63;;
42478;SDS011;28110;47.080;9.476;2023-06-24T05:29:31;8.80;;;5.78;;
42478;SDS011;28110;47.080;9.476;2023-06-24T05:31:58;11.23;;;6.57;;
42478;SDS011;28110;47.080;9.476;2023-06-24T05:34:24;10.43;;;6.00;;
42478;SDS011;28110;47.080;9.476;2023-06-24T05:36:49;10.50;;;6.30;;
42478;SDS011;28110;47.080;9.476;2023-06-24T05:39:15;12.23;;;6.00;;
42478;SDS011;28110;47.080;9.476;2023-06-24T05:41:40;8.55;;;5.15;;
42478;SDS011;28110;47.080;9.476;2023-06-24T05:44:06;12.67;;;6.73;;
42478;SDS011;28110;47.080;9.476;2023-06-24T05:46:33;12.88;;;6.03;;
42478;SDS011;28110;47.080;9.476;2023-06-24T05:48:59;11.77;;;6.63;;
42478;SDS011;28110;47.080;9.476;2023-06-24T05:51:25;8.15;;;5.97;;
42478;SDS011;28110;47.080;9.476;2023-06-24T05:53:50;8.93;;;5.53;;
42478;SDS011;28110;47.080;9.476;2023-06-24T05:56:16;9.93;;;6.50;;
42478;SDS011;28110;47.080;9.476;2023-06-24T05:58:42;9.30;;;6.38;;
42478;SDS011;28110;47.080;9.476;2023-06-24T06:01:08;11.82;;;6.35;;
42478;SDS011;28110;47.080;9.476;2023-06-24T06:03:34;9.02;;;6.13;;
42478;SDS011;28110;47.080;9.476;2023-06-24T06:06:00;12.48;;;6.65;;
42478;SDS011;28110;47.080;9.476;2023-06-24T06:08:26;10.50;;;7.57;;
42478;SDS011;28110;47.080;9.476;2023-06-24T06:10:51;11.00;;;6.90;;
42478;SDS011;28110;47.080;9.476;2023-06-24T06:13:17;11.27;;;6.50;;
42478;SDS011;28110;47.080;9.476;2023-06-24T06:15:42;7.87;;;6.73;;
42478;SDS011;28110;47.080;9.476;2023-06-24T06:18:08;11.10;;;6.80;;
42478;SDS011;28110;47.080;9.476;2023-06-24T06:20:33;12.52;;;6.88;;
42478;SDS011;28110;47.080;9.476;2023-06-24T06:22:59;10.70;;;7.00;;
42478;SDS011;28110;47.080;9.476;2023-06-24T06:25:24;9.43;;;6.90;;
42478;SDS011;28110;47.080;9.476;2023-06-24T06:27:50;8.88;;;6.10;;
42478;SDS011;28110;47.080;9.476;2023-06-24T06:30:15;10.30;;;6.30;;
42478;SDS011;28110;47.080;9.476;2023-06-24T06:32:41;9.20;;;6.37;;
42478;SDS011;28110;47.080;9.476;2023-06-24T06:35:06;7.60;;;6.05;;
42478;SDS011;28110;47.080;9.476;2023-06-24T06:37:33;10.27;;;5.67;;
42478;SDS011;28110;47.080;9.476;2023-06-24T06:39:58;9.52;;;5.95;;
42478;SDS011;28110;47.080;9.476;2023-06-24T06:42:24;7.17;;;5.20;;
42478;SDS011;28110;47.080;9.476;2023-06-24T06:44:49;9.33;;;5.70;;
42478;SDS011;28110;47.080;9.476;2023-06-24T06:47:15;9.23;;;5.85;;
42478;SDS011;28110;47.080;9.476;2023-06-24T06:49:40;10.10;;;6.17;;
42478;SDS011;28110;47.080;9.476;2023-06-24T06:52:06;11.80;;;6.30;;
42478;SDS011;28110;47.080;9.476;2023-06-24T06:54:31;13.30;;;6.03;;
42478;SDS011;28110;47.080;9.476;2023-06-24T06:57:01;9.67;;;6.07;;
42478;SDS011;28110;47.080;9.476;2023-06-24T06:59:27;9.10;;;6.38;;
42478;SDS011;28110;47.080;9.476;2023-06-24T07:01:52;10.13;;;6.63;;
42478;SDS011;28110;47.080;9.476;2023-06-24T07:04:18;10.70;;;6.55;;
42478;SDS011;28110;47.080;9.476;2023-06-24T07:06:44;9.77;;;6.73;;
42478;SDS011;28110;47.080;9.476;2023-06-24T07:09:10;8.75;;;6.32;;
42478;SDS011;28110;47.080;9.476;2023-06-24T07:11:35;8.50;;;6.50;;
42478;SDS011;28110;47.080;9.476;2023-06-24T07:14:01;10.60;;;6.40;;
42478;SDS011;28110;47.080;9.476;2023-06-24T07:16:26;8.57;;;6.55;;
42478;SDS011;28110;47.080;9.476;2023-06-24T07:18:52;8.87;;;6.30;;
42478;SDS011;28110;47.080;9.476;2023-06-24T07:21:17;11.53;;;6.37;;
42478;SDS011;28110;47.080;9.476;2023-06-24T07:23:43;12.27;;;6.90;;
42478;SDS011;28110;47.080;9.476;2023-06-24T07:26:09;12.20;;;6.33;;
42478;SDS011;28110;47.080;9.476;2023-06-24T07:28:34;8.88;;;6.32;;
42478;SDS011;28110;47.080;9.476;2023-06-24T07:31:00;11.33;;;6.90;;
42478;SDS011;28110;47.080;9.476;2023-06-24T07:33:26;8.00;;;5.70;;
42478;SDS011;28110;47.080;9.476;2023-06-24T07:35:51;12.17;;;6.23;;
42478;SDS011;28110;47.080;9.476;2023-06-24T07:38:17;7.57;;;5.70;;
42478;SDS011;28110;47.080;9.476;2023-06-24T07:40:42;7.82;;;5.53;;
42478;SDS011;28110;47.080;9.476;2023-06-24T07:43:08;7.40;;;5.33;;
42478;SDS011;28110;47.080;9.476;2023-06-24T07:45:34;7.20;;;5.20;;
42478;SDS011;28110;47.080;9.476;2023-06-24T07:47:59;9.18;;;5.97;;
42478;SDS011;28110;47.080;9.476;2023-06-24T07:50:25;8.70;;;5.33;;
42478;SDS011;28110;47.080;9.476;2023-06-24T07:52:50;9.00;;;5.70;;
42478;SDS011;28110;47.080;9.476;2023-06-24T07:55:16;9.10;;;5.47;;
42478;SDS011;28110;47.080;9.476;2023-06-24T07:57:44;6.37;;;5.03;;
42478;SDS011;28110;47.080;9.476;2023-06-24T08:00:11;9.27;;;5.38;;
42478;SDS011;28110;47.080;9.476;2023-06-24T08:02:37;11.23;;;5.57;;
42478;SDS011;28110;47.080;9.476;2023-06-24T08:05:02;7.07;;;5.30;;
42478;SDS011;28110;47.080;9.476;2023-06-24T08:07:28;9.50;;;5.00;;
42478;SDS011;28110;47.080;9.476;2023-06-24T08:09:54;8.68;;;5.53;;
42478;SDS011;28110;47.080;9.476;2023-06-24T08:12:19;8.67;;;5.40;;
42478;SDS011;28110;47.080;9.476;2023-06-24T08:14:45;12.33;;;5.80;;
42478;SDS011;28110;47.080;9.476;2023-06-24T08:17:10;10.80;;;5.27;;
42478;SDS011;28110;47.080;9.476;2023-06-24T08:19:35;7.60;;;5.87;;
42478;SDS011;28110;47.080;9.476;2023-06-24T08:22:01;7.43;;;5.20;;
42478;SDS011;28110;47.080;9.476;2023-06-24T08:24:27;9.18;;;5.43;;
42478;SDS011;28110;47.080;9.476;2023-06-24T08:26:53;6.03;;;4.97;;
42478;SDS011;28110;47.080;9.476;2023-06-24T08:29:18;9.25;;;5.32;;
42478;SDS011;28110;47.080;9.476;2023-06-24T08:31:44;7.57;;;5.03;;
42478;SDS011;28110;47.080;9.476;2023-06-24T08:34:09;7.27;;;4.70;;
42478;SDS011;28110;47.080;9.476;2023-06-24T08:36:35;6.50;;;5.07;;
42478;SDS011;28110;47.080;9.476;2023-06-24T08:39:02;7.07;;;5.18;;
42478;SDS011;28110;47.080;9.476;2023-06-24T08:41:27;7.67;;;5.77;;
42478;SDS011;28110;47.080;9.476;2023-06-24T08:43:53;7.00;;;4.87;;
42478;SDS011;28110;47.080;9.476;2023-06-24T08:46:20;8.83;;;5.40;;
42478;SDS011;28110;47.080;9.476;2023-06-24T08:48:46;6.55;;;4.97;;
42478;SDS011;28110;47.080;9.476;2023-06-24T08:51:14;7.35;;;5.13;;
42478;SDS011;28110;47.080;9.476;2023-06-24T08:53:43;7.25;;;5.28;;
42478;SDS011;28110;47.080;9.476;2023-06-24T08:56:10;7.70;;;5.40;;
42478;SDS011;28110;47.080;9.476;2023-06-24T08:58:36;8.93;;;5.40;;
42478;SDS011;28110;47.080;9.476;2023-06-24T09:01:02;8.77;;;5.70;;
42478;SDS011;28110;47.080;9.476;2023-06-24T09:03:28;6.97;;;5.63;;
42478;SDS011;28110;47.080;9.476;2023-06-24T09:05:53;7.25;;;5.53;;
42478;SDS011;28110;47.080;9.476;2023-06-24T09:08:19;7.80;;;5.90;;
42478;SDS011;28110;47.080;9.476;2023-06-24T09:10:46;7.78;;;5.95;;
42478;SDS011;28110;47.080;9.476;2023-06-24T09:13:19;8.20;;;5.90;;
42478;SDS011;28110;47.080;9.476;2023-06-24T09:15:45;8.90;;;5.70;;
42478;SDS011;28110;47.080;9.476;2023-06-24T09:18:10;9.87;;;5.70;;
42478;SDS011;28110;47.080;9.476;2023-06-24T09:20:37;11.77;;;6.03;;
42478;SDS011;28110;47.080;9.476;2023-06-24T09:23:09;9.88;;;6.10;;
42478;SDS011;28110;47.080;9.476;2023-06-24T09:25:35;7.00;;;5.50;;
42478;SDS011;28110;47.080;9.476;2023-06-24T09:28:01;7.72;;;6.32;;
42478;SDS011;28110;47.080;9.476;2023-06-24T09:30:27;8.63;;;6.50;;
42478;SDS011;28110;47.080;9.476;2023-06-24T09:32:54;8.80;;;6.13;;
42478;SDS011;28110;47.080;9.476;2023-06-24T09:35:21;8.40;;;5.82;;
42478;SDS011;28110;47.080;9.476;2023-06-24T09:37:51;11.13;;;5.67;;
42478;SDS011;28110;47.080;9.476;2023-06-24T09:40:18;8.35;;;5.82;;
42478;SDS011;28110;47.080;9.476;2023-06-24T09:42:54;8.93;;;5.85;;
42478;SDS011;28110;47.080;9.476;2023-06-24T09:45:25;8.02;;;5.97;;
42478;SDS011;28110;47.080;9.476;2023-06-24T09:47:52;9.10;;;6.05;;
42478;SDS011;28110;47.080;9.476;2023-06-24T09:50:18;11.07;;;5.80;;
42478;SDS011;28110;47.080;9.476;2023-06-24T09:52:44;8.32;;;6.00;;
42478;SDS011;28110;47.080;9.476;2023-06-24T09:55:14;8.13;;;5.72;;
42478;SDS011;28110;47.080;9.476;2023-06-24T09:57:42;7.57;;;5.38;;
42478;SDS011;28110;47.080;9.476;2023-06-24T10:00:11;9.73;;;6.20;;
42478;SDS011;28110;47.080;9.476;2023-06-24T10:02:41;10.27;;;6.40;;
42478;SDS011;28110;47.080;9.476;2023-06-24T10:05:08;10.60;;;6.68;;
42478;SDS011;28110;47.080;9.476;2023-06-24T10:07:34;10.80;;;7.18;;
42478;SDS011;28110;47.080;9.476;2023-06-24T10:10:02;8.57;;;6.97;;
42478;SDS011;28110;47.080;9.476;2023-06-24T10:12:28;7.83;;;5.60;;
42478;SDS011;28110;47.080;9.476;2023-06-24T10:14:54;8.13;;;6.32;;
42478;SDS011;28110;47.080;9.476;2023-06-24T10:17:20;8.48;;;5.93;;
42478;SDS011;28110;47.080;9.476;2023-06-24T10:19:45;7.60;;;5.70;;
42478;SDS011;28110;47.080;9.476;2023-06-24T10:22:11;9.77;;;6.43;;
42478;SDS011;28110;47.080;9.476;2023-06-24T10:24:38;6.88;;;5.40;;
42478;SDS011;28110;47.080;9.476;2023-06-24T10:27:13;8.70;;;5.50;;
42478;SDS011;28110;47.080;9.476;2023-06-24T10:29:44;6.60;;;5.20;;
42478;SDS011;28110;47.080;9.476;2023-06-24T10:32:11;7.72;;;4.97;;
42478;SDS011;28110;47.080;9.476;2023-06-24T10:37:21;5.90;;;4.63;;
42478;SDS011;28110;47.080;9.476;2023-06-24T10:39:50;6.60;;;4.88;;
42478;SDS011;28110;47.080;9.476;2023-06-24T10:44:51;6.37;;;5.10;;
42478;SDS011;28110;47.080;9.476;2023-06-24T10:47:18;11.07;;;5.00;;
42478;SDS011;28110;47.080;9.476;2023-06-24T10:49:44;5.80;;;4.50;;
42478;SDS011;28110;47.080;9.476;2023-06-24T10:52:11;9.02;;;4.95;;
42478;SDS011;28110;47.080;9.476;2023-06-24T10:54:37;6.80;;;4.50;;
42478;SDS011;28110;47.080;9.476;2023-06-24T10:57:06;5.50;;;4.60;;
42478;SDS011;28110;47.080;9.476;2023-06-24T10:59:36;5.32;;;4.22;;
42478;SDS011;28110;47.080;9.476;2023-06-24T11:02:08;5.20;;;4.10;;
42478;SDS011;28110;47.080;9.476;2023-06-24T11:04:42;6.20;;;4.35;;
42478;SDS011;28110;47.080;9.476;2023-06-24T11:07:11;6.82;;;3.90;;
42478;SDS011;28110;47.080;9.476;2023-06-24T11:09:36;6.00;;;4.13;;
42478;SDS011;28110;47.080;9.476;2023-06-24T11:12:03;5.95;;;4.45;;
42478;SDS011;28110;47.080;9.476;2023-06-24T11:14:29;5.40;;;4.10;;
42478;SDS011;28110;47.080;9.476;2023-06-24T11:16:54;4.90;;;3.83;;
42478;SDS011;28110;47.080;9.476;2023-06-24T11:19:20;4.97;;;3.50;;
42478;SDS011;28110;47.080;9.476;2023-06-24T11:21:45;4.30;;;3.63;;
42478;SDS011;28110;47.080;9.476;2023-06-24T11:24:11;4.60;;;3.67;;
42478;SDS011;28110;47.080;9.476;2023-06-24T11:26:36;4.63;;;3.07;;
42478;SDS011;28110;47.080;9.476;2023-06-24T11:29:09;3.85;;;3.40;;
42478;SDS011;28110;47.080;9.476;2023-06-24T11:31:36;4.70;;;3.40;;
42478;SDS011;28110;47.080;9.476;2023-06-24T11:34:02;4.70;;;3.78;;
42478;SDS011;28110;47.080;9.476;2023-06-24T11:36:28;5.18;;;3.65;;
42478;SDS011;28110;47.080;9.476;2023-06-24T11:38:54;4.30;;;3.40;;
42478;SDS011;28110;47.080;9.476;2023-06-24T11:41:23;8.63;;;4.13;;
42478;SDS011;28110;47.080;9.476;2023-06-24T11:43:50;6.55;;;3.92;;
42478;SDS011;28110;47.080;9.476;2023-06-24T11:46:26;8.57;;;4.07;;
42478;SDS011;28110;47.080;9.476;2023-06-24T11:48:53;5.72;;;4.05;;
42478;SDS011;28110;47.080;9.476;2023-06-24T11:51:28;5.50;;;4.47;;
42478;SDS011;28110;47.080;9.476;2023-06-24T11:53:58;5.10;;;4.17;;
42478;SDS011;28110;47.080;9.476;2023-06-24T11:56:40;6.65;;;3.90;;
42478;SDS011;28110;47.080;9.476;2023-06-24T11:59:23;5.65;;;4.85;;
42478;SDS011;28110;47.080;9.476;2023-06-24T12:01:55;6.20;;;4.50;;
42478;SDS011;28110;47.080;9.476;2023-06-24T12:04:28;6.05;;;4.28;;
42478;SDS011;28110;47.080;9.476;2023-06-24T12:06:55;6.78;;;4.40;;
42478;SDS011;28110;47.080;9.476;2023-06-24T12:09:21;6.00;;;4.13;;
42478;SDS011;28110;47.080;9.476;2023-06-24T12:11:46;5.30;;;4.43;;
42478;SDS011;28110;47.080;9.476;2023-06-24T12:14:12;5.20;;;4.07;;
42478;SDS011;28110;47.080;9.476;2023-06-24T12:16:38;4.75;;;3.80;;
42478;SDS011;28110;47.080;9.476;2023-06-24T12:19:05;7.68;;;3.80;;
42478;SDS011;28110;47.080;9.476;2023-06-24T12:21:31;6.13;;;3.67;;
42478;SDS011;28110;47.080;9.476;2023-06-24T12:23:57;7.30;;;3.92;;
42478;SDS011;28110;47.080;9.476;2023-06-24T12:26:22;4.57;;;3.67;;
42478;SDS011;28110;47.080;9.476;2023-06-24T12:28:48;4.15;;;3.40;;
42478;SDS011;28110;47.080;9.476;2023-06-24T12:31:13;5.03;;;3.60;;
42478;SDS011;28110;47.080;9.476;2023-06-24T12:33:39;3.63;;;3.20;;
42478;SDS011;28110;47.080;9.476;2023-06-24T12:36:05;5.05;;;3.70;;
42478;SDS011;28110;47.080;9.476;2023-06-24T12:38:30;5.30;;;3.77;;
42478;SDS011;28110;47.080;9.476;2023-06-24T12:40:56;4.60;;;3.50;;
42478;SDS011;28110;47.080;9.476;2023-06-24T12:43:22;5.25;;;3.10;;
42478;SDS011;28110;47.080;9.476;2023-06-24T12:45:47;4.33;;;2.67;;
42478;SDS011;28110;47.080;9.476;2023-06-24T12:48:13;5.05;;;3.58;;
42478;SDS011;28110;47.080;9.476;2023-06-24T12:50:39;4.17;;;3.07;;
42478;SDS011;28110;47.080;9.476;2023-06-24T12:53:05;4.85;;;3.08;;
42478;SDS011;28110;47.080;9.476;2023-06-24T12:55:31;5.47;;;3.42;;
42478;SDS011;28110;47.080;9.476;2023-06-24T12:57:56;4.17;;;3.33;;
42478;SDS011;28110;47.080;9.476;2023-06-24T13:00:23;4.60;;;3.40;;
42478;SDS011;28110;47.080;9.476;2023-06-24T13:02:49;4.43;;;3.20;;
42478;SDS011;28110;47.080;9.476;2023-06-24T13:05:16;3.90;;;3.17;;
42478;SDS011;28110;47.080;9.476;2023-06-24T13:07:42;4.75;;;3.40;;
42478;SDS011;28110;47.080;9.476;2023-06-24T13:10:08;5.53;;;3.15;;
42478;SDS011;28110;47.080;9.476;2023-06-24T13:12:35;5.72;;;3.25;;
42478;SDS011;28110;47.080;9.476;2023-06-24T13:15:01;5.10;;;3.37;;
42478;SDS011;28110;47.080;9.476;2023-06-24T13:17:29;4.20;;;3.25;;
42478;SDS011;28110;47.080;9.476;2023-06-24T13:19:55;4.20;;;3.13;;
42478;SDS011;28110;47.080;9.476;2023-06-24T13:22:21;5.28;;;3.15;;
42478;SDS011;28110;47.080;9.476;2023-06-24T13:24:47;5.93;;;3.30;;
42478;SDS011;28110;47.080;9.476;2023-06-24T13:27:12;4.47;;;2.97;;
42478;SDS011;28110;47.080;9.476;2023-06-24T13:29:38;4.23;;;3.07;;
42478;SDS011;28110;47.080;9.476;2023-06-24T13:32:04;5.20;;;3.10;;
42478;SDS011;28110;47.080;9.476;2023-06-24T13:34:29;4.65;;;3.42;;
42478;SDS011;28110;47.080;9.476;2023-06-24T13:36:55;4.07;;;3.20;;
42478;SDS011;28110;47.080;9.476;2023-06-24T13:39:21;4.27;;;3.23;;
42478;SDS011;28110;47.080;9.476;2023-06-24T13:41:49;5.28;;;3.15;;
42478;SDS011;28110;47.080;9.476;2023-06-24T13:44:16;5.90;;;3.60;;
42478;SDS011;28110;47.080;9.476;2023-06-24T13:46:42;3.90;;;2.87;;
42478;SDS011;28110;47.080;9.476;2023-06-24T13:49:07;7.83;;;3.53;;
42478;SDS011;28110;47.080;9.476;2023-06-24T13:51:33;5.05;;;3.42;;
42478;SDS011;28110;47.080;9.476;2023-06-24T13:53:59;4.57;;;3.00;;
42478;SDS011;28110;47.080;9.476;2023-06-24T13:56:25;5.80;;;3.30;;
42478;SDS011;28110;47.080;9.476;2023-06-24T13:58:52;5.43;;;3.50;;
42478;SDS011;28110;47.080;9.476;2023-06-24T14:01:18;4.35;;;3.25;;
42478;SDS011;28110;47.080;9.476;2023-06-24T14:03:44;4.67;;;3.40;;
42478;SDS011;28110;47.080;9.476;2023-06-24T14:06:10;4.80;;;3.67;;
42478;SDS011;28110;47.080;9.476;2023-06-24T14:08:36;6.90;;;3.40;;
42478;SDS011;28110;47.080;9.476;2023-06-24T14:11:02;4.23;;;3.20;;
42478;SDS011;28110;47.080;9.476;2023-06-24T14:13:28;5.22;;;3.28;;
42478;SDS011;28110;47.080;9.476;2023-06-24T14:15:55;3.97;;;3.20;;
42478;SDS011;28110;47.080;9.476;2023-06-24T14:18:21;3.67;;;3.10;;
42478;SDS011;28110;47.080;9.476;2023-06-24T14:20:46;4.37;;;3.20;;
42478;SDS011;28110;47.080;9.476;2023-06-24T14:23:12;4.03;;;3.40;;
42478;SDS011;28110;47.080;9.476;2023-06-24T14:25:38;5.17;;;3.77;;
42478;SDS011;28110;47.080;9.476;2023-06-24T14:28:04;5.45;;;3.67;;
42478;SDS011;28110;47.080;9.476;2023-06-24T14:30:30;5.90;;;3.40;;
42478;SDS011;28110;47.080;9.476;2023-06-24T14:32:56;4.20;;;3.05;;
42478;SDS011;28110;47.080;9.476;2023-06-24T14:35:21;4.90;;;3.60;;
42478;SDS011;28110;47.080;9.476;2023-06-24T14:37:47;4.22;;;3.13;;
42478;SDS011;28110;47.080;9.476;2023-06-24T14:40:12;5.00;;;3.40;;
42478;SDS011;28110;47.080;9.476;2023-06-24T14:42:38;6.30;;;3.37;;
42478;SDS011;28110;47.080;9.476;2023-06-24T14:45:04;4.50;;;3.28;;
42478;SDS011;28110;47.080;9.476;2023-06-24T14:47:29;3.70;;;3.27;;
42478;SDS011;28110;47.080;9.476;2023-06-24T14:49:56;4.53;;;3.60;;
42478;SDS011;28110;47.080;9.476;2023-06-24T14:52:22;3.42;;;2.95;;
42478;SDS011;28110;47.080;9.476;2023-06-24T14:54:47;4.07;;;3.50;;
42478;SDS011;28110;47.080;9.476;2023-06-24T14:57:13;6.50;;;3.25;;
42478;SDS011;28110;47.080;9.476;2023-06-24T14:59:40;4.70;;;3.40;;